ROMMA est une association bénévole à but non lucratif. Votre soutien est indispensable : ADHERER à ROMMA ou FAIRE un DON

Pinsot - (38, Isère)

Vallée du Haut Bréda (750 m)   Longitude: 06° 06' E   Latitude: 45° 21' N Station partenaire n°101
 

Détail journalier du     <<     >>

Température Precipitation Humidité Pression Vent Dir Rafale Dir. rafale Ensol.
Heure (°C) (mm) (%) (hPa) (km/h) (km/h) (min)
01:00 -4.808810342SSO10SSO0
02:00 -4.908810342SSO8SSO0
03:00 -4.808810331SSO8SO0
04:00 -4.50881033000
05:00 -5.00891032000
06:00 -5.2090103208SSO0
07:00 -5.409010321SSO8SSO0
08:00 -5.8091103208SSO0
09:00 -5.409010331SSO13S0
10:00 -4.608710333SSO13SSO0
11:00 -4.308910331SSO6SSO0
12:00 -1.708410321SSO10SSO0
13:00 -0.407710321NNE8NNE14
14:00 0.407810323NE16NNE30
15:00 0.607410323NE15NE28
16:00 -0.208010323NE16NE0
17:00 -1.2085103205SSO0
18:00 -2.10881032000
19:00 -2.108710321SSO8SSO0
20:00 -2.7089103205SSO0
21:00 -2.00851032010SSO0
22:00 -2.708610324SSO15SSO0
23:00 -2.708710321SSO11SSO0
minuit -2.9089103205SSO0

Graphique du 05-01-2019

 

Serveur OMMA